createdAt,value
2019-01-16T00:03:07.012Z,-4.08
2019-01-16T00:07:39.398Z,-4.09
2019-01-16T00:12:11.786Z,-4.12
2019-01-16T00:16:31.794Z,-4.10
2019-01-16T00:20:51.991Z,-4.13
2019-01-16T00:25:12.093Z,-4.15
2019-01-16T00:29:31.464Z,-4.16
2019-01-16T00:34:03.440Z,-4.14
2019-01-16T00:38:26.561Z,-4.12
2019-01-16T00:42:56.044Z,-4.14
2019-01-16T00:47:22.274Z,-4.14
2019-01-16T00:51:43.186Z,-4.15
2019-01-16T00:56:02.897Z,-4.16
2019-01-16T01:00:28.622Z,-4.20
2019-01-16T01:04:47.998Z,-4.19
2019-01-16T01:09:07.246Z,-4.21
2019-01-16T01:13:44.172Z,-4.24
2019-01-16T01:18:07.248Z,-4.27
2019-01-16T01:22:36.602Z,-4.28
2019-01-16T01:26:59.626Z,-4.29
2019-01-16T01:31:20.336Z,-4.32
2019-01-16T01:35:58.562Z,-4.32
2019-01-16T01:40:18.661Z,-4.35
2019-01-16T01:44:41.579Z,-4.40
2019-01-16T01:49:04.865Z,-4.38
2019-01-16T01:53:23.878Z,-4.40
2019-01-16T01:57:49.708Z,-4.42
2019-01-16T02:01:57.832Z,-4.44
2019-01-16T02:06:36.523Z,-4.44
2019-01-16T02:11:11.548Z,-4.49
2019-01-16T02:15:44.203Z,-4.52
2019-01-16T02:20:16.312Z,-4.54
2019-01-16T02:24:32.901Z,-4.59
2019-01-16T02:29:02.009Z,-4.61
2019-01-16T02:33:34.396Z,-4.67
2019-01-16T02:37:44.053Z,-4.68
2019-01-16T02:42:10.821Z,-4.72
2019-01-16T02:46:35.924Z,-4.77
2019-01-16T02:51:04.833Z,-4.84
2019-01-16T02:55:23.725Z,-4.89
2019-01-16T03:00:02.336Z,-4.95
2019-01-16T03:04:31.652Z,-4.96
2019-01-16T03:08:57.790Z,-4.95
2019-01-16T03:13:07.141Z,-4.97
2019-01-16T03:17:26.002Z,-4.96
2019-01-16T03:21:48.773Z,-4.98
2019-01-16T03:26:00.987Z,-5.02
2019-01-16T03:30:19.555Z,-5.02
2019-01-16T03:34:29.202Z,-5.01
2019-01-16T03:38:58.244Z,-5.04
2019-01-16T03:43:12.469Z,-5.05
2019-01-16T03:47:32.588Z,-5.05
2019-01-16T03:51:59.226Z,-5.07
2019-01-16T03:56:19.215Z,-5.12
2019-01-16T04:00:46.181Z,-5.19
2019-01-16T04:04:55.831Z,-5.19
2019-01-16T04:09:14.704Z,-5.22
2019-01-16T04:13:35.932Z,-5.22
2019-01-16T04:17:57.668Z,-5.22
2019-01-16T04:22:19.875Z,-5.25
2019-01-16T04:26:39.710Z,-5.28
2019-01-16T04:31:17.319Z,-5.25
2019-01-16T04:35:48.870Z,-5.26
2019-01-16T04:40:07.512Z,-5.27
2019-01-16T04:44:26.307Z,-5.27
2019-01-16T04:48:44.940Z,-5.27
2019-01-16T04:53:14.013Z,-5.30
2019-01-16T04:57:32.383Z,-5.35
2019-01-16T05:02:00.969Z,-5.35
2019-01-16T05:06:11.766Z,-5.39
2019-01-16T05:10:26.534Z,-5.39
2019-01-16T05:14:37.903Z,-5.42
2019-01-16T05:19:16.443Z,-5.45
2019-01-16T05:23:51.484Z,-5.50
2019-01-16T05:28:14.648Z,-5.56
2019-01-16T05:32:46.644Z,-5.57
2019-01-16T05:37:06.018Z,-5.58
2019-01-16T05:41:34.936Z,-5.61
2019-01-16T05:45:53.994Z,-5.61
2019-01-16T05:50:09.395Z,-5.62
2019-01-16T05:54:28.089Z,-5.60
2019-01-16T05:58:56.853Z,-5.68
2019-01-16T06:03:34.958Z,-5.71
2019-01-16T06:07:57.994Z,-5.72
2019-01-16T06:12:20.908Z,-5.75
2019-01-16T06:16:39.678Z,-5.76
2019-01-16T06:21:02.237Z,-5.78
2019-01-16T06:25:30.843Z,-5.79
2019-01-16T06:29:49.498Z,-5.84
2019-01-16T06:34:18.473Z,-5.93
2019-01-16T06:38:37.274Z,-6.07
2019-01-16T06:43:03.278Z,-6.20
2019-01-16T06:47:19.956Z,-6.25
2019-01-16T06:51:31.847Z,-6.37
2019-01-16T06:55:54.903Z,-6.53
2019-01-16T07:00:13.359Z,-6.78
2019-01-16T07:04:27.222Z,-6.93
2019-01-16T07:08:53.158Z,-6.98
2019-01-16T07:13:08.233Z,-7.16
2019-01-16T07:17:37.555Z,-7.20
2019-01-16T07:22:15.825Z,-7.33
2019-01-16T07:26:35.492Z,-7.42
2019-01-16T07:30:49.755Z,-7.59
2019-01-16T07:35:18.708Z,-7.65
2019-01-16T07:39:38.483Z,-7.74
2019-01-16T07:43:53.448Z,-7.76
2019-01-16T07:48:13.508Z,-7.85
2019-01-16T07:52:39.107Z,-7.99
2019-01-16T07:56:56.788Z,-8.10
2019-01-16T08:01:25.784Z,-8.05
2019-01-16T08:05:49.227Z,-8.10
2019-01-16T08:10:17.363Z,-8.07
2019-01-16T08:14:49.439Z,-8.03
2019-01-16T08:19:07.883Z,-8.08
2019-01-16T08:23:26.803Z,-8.16
2019-01-16T08:27:46.488Z,-8.15
2019-01-16T08:32:14.875Z,-8.11
2019-01-16T08:36:56.143Z,-8.07
2019-01-16T08:41:25.147Z,-8.12
2019-01-16T08:45:45.148Z,-8.23
2019-01-16T08:50:13.028Z,-8.27
2019-01-16T08:54:42.008Z,-8.35
2019-01-16T08:58:55.478Z,-8.40
2019-01-16T09:03:18.138Z,-8.44
2019-01-16T09:07:36.918Z,-8.35
2019-01-16T09:11:51.402Z,-8.36
2019-01-16T09:16:14.443Z,-8.32
2019-01-16T09:20:28.497Z,-8.38
2019-01-16T09:24:47.673Z,-8.41
2019-01-16T09:29:19.218Z,-8.33
2019-01-16T09:33:32.027Z,-8.29
2019-01-16T09:38:01.608Z,-8.26
2019-01-16T09:42:14.528Z,-8.30
2019-01-16T09:46:51.844Z,-8.26
2019-01-16T09:51:14.974Z,-8.24
2019-01-16T09:55:29.709Z,-8.17
2019-01-16T09:59:55.354Z,-8.08
2019-01-16T10:04:13.919Z,-8.00
2019-01-16T10:08:32.697Z,-7.96
2019-01-16T10:12:58.233Z,-7.74
2019-01-16T10:17:24.782Z,-7.38
2019-01-16T10:21:47.690Z,-7.10
2019-01-16T10:26:16.579Z,-7.21
2019-01-16T10:30:47.718Z,-7.24
2019-01-16T10:35:19.828Z,-7.31
2019-01-16T10:39:38.616Z,-7.41
2019-01-16T10:43:56.487Z,-7.51
2019-01-16T10:48:19.020Z,-7.53
2019-01-16T10:52:41.263Z,-7.54
2019-01-16T10:57:16.348Z,-7.53
2019-01-16T11:01:51.652Z,-7.55
2019-01-16T11:06:14.693Z,-7.49
2019-01-16T11:10:33.267Z,-7.45
2019-01-16T11:15:01.578Z,-7.43
2019-01-16T11:19:21.368Z,-7.47
2019-01-16T11:23:51.499Z,-7.46
2019-01-16T11:28:18.524Z,-7.51
2019-01-16T11:32:48.183Z,-7.54
2019-01-16T11:37:08.603Z,-7.55
2019-01-16T11:41:20.218Z,-7.63
2019-01-16T11:45:38.625Z,-7.69
2019-01-16T11:49:57.312Z,-7.81
2019-01-16T11:54:29.324Z,-7.86
2019-01-16T11:58:44.358Z,-7.86
2019-01-16T12:03:01.789Z,-7.83
2019-01-16T12:07:21.518Z,-7.78
2019-01-16T12:11:34.532Z,-7.80
2019-01-16T12:16:03.977Z,-7.87
2019-01-16T12:20:30.568Z,-7.90
2019-01-16T12:24:49.514Z,-8.04
2019-01-16T12:29:08.303Z,-8.00
2019-01-16T12:33:31.315Z,-8.10
2019-01-16T12:38:03.617Z,-8.09
2019-01-16T12:42:31.408Z,-8.16
2019-01-16T12:55:30.957Z,-8.36
2019-01-16T12:59:50.328Z,-8.39
2019-01-16T13:04:13.640Z,-8.72
2019-01-16T13:08:36.513Z,-8.78
2019-01-16T13:12:58.127Z,-8.95
2019-01-16T13:17:36.508Z,-9.05
2019-01-16T13:21:56.369Z,-9.05
2019-01-16T13:26:22.062Z,-9.19
2019-01-16T13:40:00.454Z,-9.86
2019-01-16T13:44:20.449Z,-9.94
2019-01-16T13:48:53.015Z,-10.18
2019-01-16T14:00:49.136Z,-10.19
2019-01-16T14:05:00.624Z,-10.33
2019-01-16T14:09:33.658Z,-10.36
2019-01-16T14:14:00.489Z,-10.62
2019-01-16T14:18:25.202Z,-10.62
2019-01-16T14:22:57.258Z,-10.76
2019-01-16T14:27:23.319Z,-10.83
2019-01-16T14:32:01.428Z,-10.80
2019-01-16T14:36:36.391Z,-10.77
2019-01-16T14:41:08.369Z,-10.88
2019-01-16T14:45:28.057Z,-10.88
2019-01-16T14:49:56.751Z,-11.00
2019-01-16T14:54:22.610Z,-10.96
2019-01-16T14:58:45.457Z,-10.94
2019-01-16T15:03:05.429Z,-10.96
2019-01-16T15:07:26.799Z,-11.08
2019-01-16T15:11:43.767Z,-11.08
2019-01-16T15:16:03.754Z,-11.15
2019-01-16T15:20:23.407Z,-11.17
2019-01-16T15:24:31.311Z,-11.24
2019-01-16T15:29:03.179Z,-11.32
2019-01-16T15:33:25.845Z,-11.31
2019-01-16T15:37:46.348Z,-11.26
2019-01-16T15:42:01.019Z,-11.27
2019-01-16T15:46:21.172Z,-11.30
2019-01-16T15:50:59.447Z,-11.30
2019-01-16T15:55:25.537Z,-11.27
2019-01-16T15:59:48.041Z,-11.30
2019-01-16T16:04:13.910Z,-11.34
2019-01-16T16:08:33.087Z,-11.33
2019-01-16T16:13:05.013Z,-11.22
2019-01-16T16:17:19.096Z,-11.13
2019-01-16T16:21:48.203Z,-11.21
2019-01-16T16:26:18.317Z,-11.13
2019-01-16T16:30:33.701Z,-11.05
2019-01-16T16:35:08.647Z,-11.12
2019-01-16T16:39:27.742Z,-11.03
2019-01-16T16:43:36.106Z,-11.10
2019-01-16T16:47:54.642Z,-11.10
2019-01-16T16:52:07.266Z,-11.09
2019-01-16T16:56:36.583Z,-11.07
2019-01-16T17:01:02.399Z,-10.95
2019-01-16T17:05:36.727Z,-10.86
2019-01-16T17:09:51.677Z,-10.90
2019-01-16T17:14:11.211Z,-10.91
2019-01-16T17:18:39.897Z,-10.81
2019-01-16T17:23:11.831Z,-10.74
2019-01-16T17:27:31.396Z,-10.68
2019-01-16T17:31:44.412Z,-10.60
2019-01-16T17:36:03.066Z,-10.69
2019-01-16T17:40:11.096Z,-10.69
2019-01-16T17:44:29.544Z,-10.69
2019-01-16T17:48:38.797Z,-10.64
2019-01-16T17:53:04.277Z,-10.71
2019-01-16T17:57:29.646Z,-10.71
2019-01-16T18:01:41.582Z,-10.68
2019-01-16T18:06:10.498Z,-10.52
2019-01-16T18:10:20.549Z,-10.45
2019-01-16T18:14:40.391Z,-10.34
2019-01-16T18:19:10.486Z,-10.30
2019-01-16T18:23:36.918Z,-10.30
2019-01-16T18:28:05.779Z,-10.27
2019-01-16T18:32:28.961Z,-10.29
2019-01-16T18:36:47.729Z,-10.16
2019-01-16T18:41:10.798Z,-10.16
2019-01-16T18:45:29.782Z,-10.00
2019-01-16T18:49:55.740Z,-10.11
2019-01-16T18:54:24.793Z,-10.11
2019-01-16T18:58:36.202Z,-10.07
2019-01-16T19:02:58.965Z,-9.99
2019-01-16T19:07:18.819Z,-9.82
2019-01-16T19:11:38.548Z,-9.82
2019-01-16T19:15:53.663Z,-9.63
2019-01-16T19:20:19.401Z,-9.63
2019-01-16T19:24:45.164Z,-9.52
2019-01-16T19:29:03.797Z,-9.40
2019-01-16T19:33:17.942Z,-9.33
2019-01-16T19:37:50.546Z,-9.15
2019-01-16T19:42:09.708Z,-9.03
2019-01-16T19:46:28.293Z,-9.03
2019-01-16T19:50:44.442Z,-8.85
2019-01-16T19:55:19.634Z,-8.87
2019-01-16T19:59:57.654Z,-8.87
2019-01-16T20:04:17.326Z,-8.72
2019-01-16T20:08:35.712Z,-8.65
2019-01-16T20:12:55.902Z,-8.58
2019-01-16T20:17:06.248Z,-8.43
2019-01-16T20:21:30.642Z,-8.39
2019-01-16T20:25:57.038Z,-8.34
2019-01-16T20:30:07.371Z,-8.32
2019-01-16T20:34:39.580Z,-8.27
2019-01-16T20:38:59.386Z,-8.23
2019-01-16T20:43:17.496Z,-8.19
2019-01-16T20:47:46.334Z,-8.13
2019-01-16T20:52:06.100Z,-8.03
2019-01-16T20:56:25.745Z,-7.98
2019-01-16T21:00:44.054Z,-7.87
2019-01-16T21:05:02.453Z,-7.77
2019-01-16T21:09:37.048Z,-7.68
2019-01-16T21:14:02.483Z,-7.58
2019-01-16T21:28:30.852Z,-7.30
2019-01-16T21:33:00.902Z,-7.30
2019-01-16T21:37:27.897Z,-7.19
2019-01-16T21:42:03.407Z,-7.08
2019-01-16T21:46:22.041Z,-7.05
2019-01-16T21:50:41.966Z,-6.98
2019-01-16T22:07:04.233Z,-6.64
2019-01-16T22:11:22.540Z,-6.63
2019-01-16T22:15:51.631Z,-6.61
2019-01-16T22:20:02.049Z,-6.55
2019-01-16T22:36:03.560Z,-6.33
2019-01-16T22:40:26.331Z,-6.34
2019-01-16T22:44:50.416Z,-6.31
2019-01-16T22:49:16.224Z,-6.22
2019-01-16T22:53:52.504Z,-6.16
2019-01-16T22:58:12.887Z,-6.13
2019-01-16T23:02:41.798Z,-6.08
2019-01-16T23:06:49.343Z,-6.01
2019-01-16T23:11:01.782Z,-5.94
2019-01-16T23:15:15.727Z,-5.87
2019-01-16T23:19:34.997Z,-5.78
2019-01-16T23:23:51.719Z,-5.69
2019-01-16T23:28:11.830Z,-5.58
2019-01-16T23:32:44.110Z,-5.53
2019-01-16T23:37:03.502Z,-5.48
2019-01-16T23:41:26.425Z,-5.37
2019-01-16T23:45:45.347Z,-5.31
2019-01-16T23:50:11.674Z,-5.30
2019-01-16T23:54:37.407Z,-5.25
2019-01-16T23:59:15.729Z,-5.20
